createdAt,value
2017-11-09T00:02:00.942Z,87.90
2017-11-09T00:04:33.276Z,81.80
2017-11-09T00:06:59.473Z,82.57
2017-11-09T00:09:26.394Z,84.53
2017-11-09T00:11:53.414Z,93.93
2017-11-09T00:14:19.590Z,83.03
2017-11-09T00:16:46.528Z,84.83
2017-11-09T00:19:13.474Z,87.13
2017-11-09T00:21:39.670Z,75.40
2017-11-09T00:24:05.846Z,83.23
2017-11-09T00:26:33.554Z,94.33
2017-11-09T00:28:59.734Z,85.33
2017-11-09T00:31:25.949Z,81.90
2017-11-09T00:33:52.131Z,84.03
2017-11-09T00:36:19.861Z,87.20
2017-11-09T00:38:46.009Z,82.23
2017-11-09T00:41:12.217Z,87.07
2017-11-09T00:43:38.395Z,80.97
2017-11-09T00:46:05.311Z,88.60
2017-11-09T00:48:31.499Z,88.23
2017-11-09T00:50:57.681Z,96.77
2017-11-09T00:53:23.855Z,73.77
2017-11-09T00:55:50.802Z,83.40
2017-11-09T00:58:17.742Z,82.87
2017-11-09T01:00:43.914Z,82.90
2017-11-09T01:03:10.106Z,75.23
2017-11-09T01:05:36.277Z,89.20
2017-11-09T01:08:02.452Z,77.70
2017-11-09T01:10:28.642Z,87.20
2017-11-09T01:12:55.044Z,84.07
2017-11-09T01:15:21.251Z,78.40
2017-11-09T01:17:47.490Z,85.63
2017-11-09T01:20:15.156Z,82.10
2017-11-09T01:22:41.311Z,78.30
2017-11-09T01:25:09.006Z,81.70
2017-11-09T01:27:35.918Z,81.37
2017-11-09T01:30:02.126Z,84.93
2017-11-09T01:32:29.116Z,89.10
2017-11-09T01:34:56.045Z,91.80
2017-11-09T01:37:22.239Z,86.37
2017-11-09T01:39:48.428Z,79.07
2017-11-09T01:42:14.623Z,77.07
2017-11-09T01:44:40.817Z,79.10
2017-11-09T01:47:07.751Z,81.90
2017-11-09T01:49:34.675Z,77.70
2017-11-09T01:52:00.866Z,86.20
2017-11-09T01:54:27.082Z,79.87
2017-11-09T01:56:53.994Z,91.93
2017-11-09T01:59:20.180Z,83.97
2017-11-09T02:01:47.091Z,90.13
2017-11-09T02:04:14.028Z,82.60
2017-11-09T02:06:40.238Z,81.97
2017-11-09T02:09:06.470Z,86.23
2017-11-09T02:11:32.701Z,87.17
2017-11-09T02:13:59.157Z,89.33
2017-11-09T02:16:25.350Z,77.20
2017-11-09T02:18:51.551Z,78.63
2017-11-09T02:21:18.502Z,76.30
2017-11-09T02:23:44.689Z,83.70
2017-11-09T02:26:10.858Z,88.13
2017-11-09T02:28:37.795Z,82.57
2017-11-09T02:31:03.983Z,91.10
2017-11-09T02:33:30.904Z,85.70
2017-11-09T02:35:57.075Z,87.97
2017-11-09T02:38:24.024Z,86.83
2017-11-09T02:40:50.238Z,89.47
2017-11-09T02:43:17.176Z,91.43
2017-11-09T02:45:44.125Z,81.13
2017-11-09T02:48:10.322Z,81.40
2017-11-09T02:50:36.499Z,90.80
2017-11-09T02:53:02.702Z,81.90
2017-11-09T02:55:28.877Z,88.20
2017-11-09T02:57:55.809Z,93.97
2017-11-09T03:00:21.996Z,82.53
2017-11-09T03:02:48.175Z,99.23
2017-11-09T03:05:14.366Z,94.30
2017-11-09T03:07:40.810Z,101.10
2017-11-09T03:10:06.988Z,100.10
2017-11-09T03:12:33.157Z,96.37
2017-11-09T03:15:01.166Z,94.03
2017-11-09T03:17:27.351Z,89.27
2017-11-09T03:19:54.245Z,95.27
2017-11-09T03:22:20.446Z,86.37
2017-11-09T03:24:46.627Z,92.57
2017-11-09T03:27:12.801Z,94.70
2017-11-09T03:29:39.717Z,87.73
2017-11-09T03:32:05.898Z,100.67
2017-11-09T03:34:32.078Z,96.30
2017-11-09T03:36:58.261Z,93.10
2017-11-09T03:39:25.171Z,77.73
2017-11-09T03:41:52.860Z,97.83
2017-11-09T03:44:19.803Z,89.33
2017-11-09T03:46:45.974Z,100.60
2017-11-09T03:49:12.169Z,98.10
2017-11-09T03:51:39.093Z,90.27
2017-11-09T03:54:05.290Z,91.00
2017-11-09T03:56:31.454Z,89.20
2017-11-09T03:58:57.650Z,84.30
2017-11-09T04:01:23.823Z,86.90
2017-11-09T04:03:50.006Z,95.30
2017-11-09T04:06:16.947Z,100.10
2017-11-09T04:08:43.877Z,102.43
2017-11-09T04:11:10.046Z,102.50
2017-11-09T04:13:37.773Z,106.83
2017-11-09T04:16:04.838Z,96.77
2017-11-09T04:18:31.034Z,90.63
2017-11-09T04:20:57.221Z,92.60
2017-11-09T04:23:23.423Z,95.97
2017-11-09T04:25:49.615Z,100.60
2017-11-09T04:28:15.792Z,89.03
2017-11-09T04:30:41.977Z,102.20
2017-11-09T04:33:08.162Z,97.37
2017-11-09T04:35:35.109Z,99.30
2017-11-09T04:38:01.282Z,93.37
2017-11-09T04:40:28.200Z,94.50
2017-11-09T04:42:54.394Z,100.10
2017-11-09T04:45:20.564Z,92.87
2017-11-09T04:47:46.758Z,94.63
2017-11-09T04:50:12.966Z,82.20
2017-11-09T04:52:39.150Z,101.90
2017-11-09T04:55:05.335Z,93.53
2017-11-09T04:57:31.553Z,93.50
2017-11-09T04:59:57.724Z,100.20
2017-11-09T05:02:23.901Z,89.63
2017-11-09T05:04:50.105Z,95.97
2017-11-09T05:07:16.276Z,93.97
2017-11-09T05:09:42.474Z,93.00
2017-11-09T05:12:09.564Z,95.07
2017-11-09T05:14:35.754Z,96.93
2017-11-09T05:17:02.257Z,95.27
2017-11-09T05:19:30.096Z,88.20
2017-11-09T05:21:56.286Z,96.57
2017-11-09T05:24:22.450Z,101.10
2017-11-09T05:26:48.678Z,104.33
2017-11-09T05:29:14.850Z,96.07
2017-11-09T05:31:41.763Z,95.50
2017-11-09T05:34:07.971Z,109.37
2017-11-09T05:36:34.169Z,101.07
2017-11-09T05:39:00.347Z,101.53
2017-11-09T05:41:26.514Z,105.43
2017-11-09T05:43:52.687Z,106.20
2017-11-09T05:46:18.886Z,106.03
2017-11-09T05:48:45.058Z,98.00
2017-11-09T05:51:11.971Z,107.20
2017-11-09T05:53:39.638Z,100.07
2017-11-09T05:56:05.830Z,105.30
2017-11-09T05:58:32.006Z,91.43
2017-11-09T06:00:58.950Z,96.30
2017-11-09T06:03:25.138Z,111.93
2017-11-09T06:05:51.325Z,102.73
2017-11-09T06:08:17.533Z,100.17
2017-11-09T06:10:43.769Z,103.50
2017-11-09T06:13:09.931Z,107.13
2017-11-09T06:15:36.112Z,105.30
2017-11-09T06:18:02.374Z,98.63
2017-11-09T06:20:28.570Z,93.37
2017-11-09T06:22:54.750Z,91.27
2017-11-09T06:25:20.927Z,116.37
2017-11-09T06:27:47.846Z,96.20
2017-11-09T06:30:14.014Z,105.97
2017-11-09T06:32:40.210Z,105.80
2017-11-09T06:35:06.383Z,96.83
2017-11-09T06:37:33.318Z,97.47
2017-11-09T06:40:00.255Z,104.60
2017-11-09T06:42:26.421Z,93.97
2017-11-09T06:44:52.606Z,95.50
2017-11-09T06:47:18.845Z,105.33
2017-11-09T06:49:45.082Z,97.40
2017-11-09T06:52:11.249Z,105.70
2017-11-09T06:54:37.465Z,104.27
2017-11-09T06:57:04.375Z,98.23
2017-11-09T06:59:30.538Z,107.30
2017-11-09T07:01:56.722Z,95.77
2017-11-09T07:04:22.895Z,105.50
2017-11-09T07:06:50.578Z,90.87
2017-11-09T07:09:16.751Z,96.43
2017-11-09T07:11:42.918Z,98.27
2017-11-09T07:14:09.100Z,96.70
2017-11-09T07:16:36.062Z,95.70
2017-11-09T07:19:02.509Z,98.97
2017-11-09T07:21:28.686Z,102.50
2017-11-09T07:23:54.918Z,101.43
2017-11-09T07:26:21.093Z,97.67
2017-11-09T07:28:47.274Z,97.07
2017-11-09T07:31:13.493Z,120.37
2017-11-09T07:33:39.674Z,99.20
2017-11-09T07:36:05.855Z,96.03
2017-11-09T07:38:32.034Z,103.57
2017-11-09T07:40:58.210Z,98.67
2017-11-09T07:43:24.390Z,97.07
2017-11-09T07:45:50.602Z,97.43
2017-11-09T07:48:16.764Z,94.60
2017-11-09T07:50:42.943Z,107.27
2017-11-09T07:53:09.131Z,101.23
2017-11-09T07:55:36.068Z,98.70
2017-11-09T07:58:02.252Z,89.40
2017-11-09T08:00:28.455Z,90.87
2017-11-09T08:02:54.634Z,109.47
2017-11-09T08:05:20.806Z,95.03
2017-11-09T08:07:47.031Z,97.80
2017-11-09T08:10:13.986Z,87.60
2017-11-09T08:12:40.192Z,88.17
2017-11-09T08:15:06.361Z,99.30
2017-11-09T08:17:32.538Z,114.10
2017-11-09T08:19:58.783Z,105.90
2017-11-09T08:22:24.982Z,112.53
2017-11-09T08:24:55.534Z,100.03
2017-11-09T08:27:24.403Z,100.60
2017-11-09T08:29:53.335Z,98.00
2017-11-09T08:32:22.411Z,89.67
2017-11-09T08:34:49.313Z,100.23
2017-11-09T08:37:15.542Z,96.57
2017-11-09T08:39:41.721Z,102.83
2017-11-09T08:42:07.911Z,109.83
2017-11-09T08:44:34.110Z,93.03
2017-11-09T08:47:00.298Z,112.10
2017-11-09T08:49:26.486Z,116.40
2017-11-09T08:51:52.658Z,114.63
2017-11-09T08:54:18.853Z,109.97
2017-11-09T08:56:45.118Z,103.40
2017-11-09T08:59:11.337Z,116.50
2017-11-09T09:01:37.518Z,109.23
2017-11-09T09:04:04.472Z,108.27
2017-11-09T09:06:30.662Z,115.50
2017-11-09T09:08:56.841Z,115.90
2017-11-09T09:11:24.525Z,118.47
2017-11-09T09:13:51.485Z,119.33
2017-11-09T09:16:17.698Z,112.70
2017-11-09T09:18:44.618Z,113.40
2017-11-09T09:21:14.010Z,113.07
2017-11-09T09:23:40.194Z,111.80
2017-11-09T09:26:07.858Z,132.43
2017-11-09T09:28:35.728Z,117.93
2017-11-09T09:31:02.736Z,120.83
2017-11-09T09:33:33.509Z,117.23
2017-11-09T09:36:02.191Z,122.00
2017-11-09T09:38:36.715Z,120.07
2017-11-09T09:41:03.668Z,122.77
2017-11-09T09:43:29.870Z,123.63
2017-11-09T09:45:56.063Z,123.40
2017-11-09T09:48:22.295Z,125.57
2017-11-09T09:50:49.242Z,117.90
2017-11-09T09:53:16.154Z,139.40
2017-11-09T09:55:42.374Z,130.30
2017-11-09T09:58:08.597Z,131.63
2017-11-09T10:00:34.791Z,133.30
2017-11-09T10:03:01.737Z,128.37
2017-11-09T10:05:28.665Z,135.63
2017-11-09T10:07:54.854Z,139.20
2017-11-09T10:10:21.064Z,143.40
2017-11-09T10:12:47.266Z,150.10
2017-11-09T10:15:14.241Z,140.73
2017-11-09T10:17:41.185Z,140.13
2017-11-09T10:20:08.108Z,129.40
2017-11-09T10:22:34.553Z,150.23
2017-11-09T10:25:00.762Z,152.03
2017-11-09T10:27:26.927Z,144.63
2017-11-09T10:29:53.854Z,154.27
2017-11-09T10:32:20.101Z,160.10
2017-11-09T10:34:46.278Z,151.47
2017-11-09T10:37:13.208Z,154.37
2017-11-09T10:39:39.381Z,144.60
2017-11-09T10:42:05.562Z,155.00
2017-11-09T10:44:31.786Z,154.67
2017-11-09T10:46:58.024Z,152.50
2017-11-09T10:49:24.218Z,153.53
2017-11-09T10:51:50.443Z,162.80
2017-11-09T10:54:16.683Z,147.77
2017-11-09T10:56:42.867Z,145.40
2017-11-09T10:59:09.053Z,156.77
2017-11-09T11:01:35.258Z,155.30
2017-11-09T11:04:02.161Z,158.90
2017-11-09T11:06:28.334Z,165.60
2017-11-09T11:08:54.584Z,158.00
2017-11-09T11:11:21.516Z,184.90
2017-11-09T11:13:47.721Z,165.30
2017-11-09T11:16:13.909Z,179.10
2017-11-09T11:18:40.822Z,174.80
2017-11-09T11:21:07.014Z,167.53
2017-11-09T11:23:33.276Z,162.10
2017-11-09T11:25:59.455Z,172.97
2017-11-09T11:28:26.373Z,174.87
2017-11-09T11:30:52.558Z,162.73
2017-11-09T11:33:18.729Z,167.93
2017-11-09T11:35:44.945Z,151.70
2017-11-09T11:38:11.165Z,156.13
2017-11-09T11:40:37.351Z,141.80
2017-11-09T11:43:03.564Z,149.53
2017-11-09T11:45:29.794Z,133.30
2017-11-09T11:47:58.939Z,149.80
2017-11-09T11:50:25.117Z,144.87
2017-11-09T11:52:51.302Z,138.47
2017-11-09T11:55:17.519Z,128.17
2017-11-09T11:57:43.725Z,139.60
2017-11-09T12:00:09.922Z,132.10
2017-11-09T12:02:36.831Z,137.57
2017-11-09T12:05:03.035Z,161.33
2017-11-09T12:07:29.241Z,138.77
2017-11-09T12:09:55.426Z,131.63
2017-11-09T12:12:23.383Z,130.53
2017-11-09T12:14:49.598Z,137.47
2017-11-09T12:17:15.763Z,139.10
2017-11-09T12:19:41.928Z,129.90
2017-11-09T12:22:08.947Z,131.97
2017-11-09T12:24:35.206Z,141.47
2017-11-09T12:27:02.127Z,135.53
2017-11-09T12:29:28.380Z,151.37
2017-11-09T12:31:55.350Z,151.03
2017-11-09T12:34:21.553Z,147.50
2017-11-09T12:36:47.789Z,143.73
2017-11-09T12:39:13.999Z,142.70
2017-11-09T12:41:40.185Z,145.57
2017-11-09T12:44:06.378Z,143.80
2017-11-09T12:46:32.577Z,129.33
2017-11-09T12:48:58.810Z,151.90
2017-11-09T12:51:25.748Z,134.23
2017-11-09T12:53:51.952Z,131.13
2017-11-09T12:56:18.215Z,139.47
2017-11-09T12:58:44.459Z,136.90
2017-11-09T13:01:11.362Z,138.87
2017-11-09T13:03:37.546Z,131.77
2017-11-09T13:06:03.741Z,132.90
2017-11-09T13:08:29.932Z,138.57
2017-11-09T13:10:56.126Z,130.40
2017-11-09T13:13:22.293Z,136.57
2017-11-09T13:15:48.484Z,128.67
2017-11-09T13:18:15.413Z,130.97
2017-11-09T13:20:41.658Z,122.80
2017-11-09T13:23:07.845Z,131.77
2017-11-09T13:25:34.178Z,128.80
2017-11-09T13:28:00.382Z,132.57
2017-11-09T13:30:26.596Z,130.77
2017-11-09T13:32:52.798Z,126.20
2017-11-09T13:35:19.036Z,132.83
2017-11-09T13:37:45.207Z,143.10
2017-11-09T13:40:12.118Z,142.10
2017-11-09T13:42:38.320Z,131.73
2017-11-09T13:45:04.575Z,136.27
2017-11-09T13:47:30.738Z,145.60
2017-11-09T13:49:56.939Z,142.40
2017-11-09T13:52:23.099Z,137.33
2017-11-09T13:54:49.269Z,134.67
2017-11-09T13:57:15.468Z,128.90
2017-11-09T13:59:41.647Z,153.00
2017-11-09T14:02:08.596Z,132.90
2017-11-09T14:04:34.853Z,149.13
2017-11-09T14:07:01.036Z,143.93
2017-11-09T14:09:27.205Z,148.63
2017-11-09T14:11:54.117Z,152.93
2017-11-09T14:14:20.280Z,147.17
2017-11-09T14:16:46.457Z,149.87
2017-11-09T14:19:12.633Z,151.50
2017-11-09T14:21:38.826Z,138.67
2017-11-09T14:24:05.016Z,133.07
2017-11-09T14:26:32.096Z,146.60
2017-11-09T14:28:58.301Z,148.67
2017-11-09T14:31:24.511Z,146.63
2017-11-09T14:33:50.754Z,139.43
2017-11-09T14:36:16.926Z,128.93
2017-11-09T14:38:43.103Z,124.93
2017-11-09T14:41:09.350Z,140.47
2017-11-09T14:43:35.518Z,143.20
2017-11-09T14:46:02.439Z,123.70
2017-11-09T14:48:28.650Z,145.83
2017-11-09T14:50:54.828Z,133.50
2017-11-09T14:53:21.722Z,139.37
2017-11-09T14:55:47.912Z,144.10
2017-11-09T14:58:14.812Z,137.80
2017-11-09T15:00:41.018Z,135.37
2017-11-09T15:03:07.181Z,138.57
2017-11-09T15:05:33.409Z,132.40
2017-11-09T15:07:59.578Z,130.60
2017-11-09T15:10:25.839Z,145.33
2017-11-09T15:12:52.027Z,158.80
2017-11-09T15:15:18.211Z,152.80
2017-11-09T15:17:44.460Z,146.10
2017-11-09T15:20:10.639Z,143.50
2017-11-09T15:22:37.570Z,163.90
2017-11-09T15:25:03.809Z,148.97
2017-11-09T15:27:30.064Z,161.73
2017-11-09T15:29:57.040Z,170.77
2017-11-09T15:32:24.174Z,159.87
2017-11-09T15:34:51.160Z,156.20
2017-11-09T15:37:17.377Z,168.47
2017-11-09T15:39:44.315Z,160.03
2017-11-09T15:42:11.270Z,160.30
2017-11-09T15:44:37.450Z,165.50
2017-11-09T15:47:03.627Z,177.67
2017-11-09T15:49:30.546Z,167.77
2017-11-09T15:51:56.704Z,153.50
2017-11-09T15:54:22.919Z,165.40
2017-11-09T15:56:49.104Z,168.70
2017-11-09T15:59:15.286Z,177.10
2017-11-09T16:01:41.502Z,167.97
2017-11-09T16:04:07.698Z,151.13
2017-11-09T16:06:37.503Z,163.63
2017-11-09T16:09:04.430Z,145.23
2017-11-09T16:11:30.618Z,161.50
2017-11-09T16:13:56.833Z,158.30
2017-11-09T16:16:23.750Z,161.47
2017-11-09T16:18:49.919Z,153.03
2017-11-09T16:21:16.871Z,160.03
2017-11-09T16:23:43.094Z,145.87
2017-11-09T16:26:10.003Z,148.20
2017-11-09T16:28:36.370Z,139.27
2017-11-09T16:31:03.332Z,129.00
2017-11-09T16:33:29.523Z,136.27
2017-11-09T16:35:55.774Z,141.40
2017-11-09T16:38:21.979Z,141.53
2017-11-09T16:40:48.182Z,160.07
2017-11-09T16:43:14.371Z,135.80
2017-11-09T16:45:40.600Z,134.00
2017-11-09T16:48:06.781Z,126.20
2017-11-09T16:50:32.960Z,140.00
2017-11-09T16:53:02.130Z,129.80
2017-11-09T16:55:28.291Z,125.43
2017-11-09T16:57:54.486Z,137.30
2017-11-09T17:00:21.471Z,131.20
2017-11-09T17:02:47.673Z,133.17
2017-11-09T17:05:14.602Z,127.33
2017-11-09T17:07:40.967Z,119.60
2017-11-09T17:10:07.278Z,123.87
2017-11-09T17:12:33.535Z,126.13
2017-11-09T17:14:59.752Z,126.40
2017-11-09T17:17:26.682Z,123.90
2017-11-09T17:19:53.021Z,113.97
2017-11-09T17:22:20.086Z,118.73
2017-11-09T17:24:47.031Z,131.07
2017-11-09T17:27:13.977Z,113.97
2017-11-09T17:29:41.177Z,115.27
2017-11-09T17:32:07.380Z,116.63
2017-11-09T17:34:34.307Z,127.83
2017-11-09T17:37:00.497Z,126.47
2017-11-09T17:39:26.713Z,132.77
2017-11-09T17:41:57.561Z,122.03
2017-11-09T17:44:24.527Z,124.43
2017-11-09T17:46:50.693Z,123.67
2017-11-09T17:49:16.870Z,140.60
2017-11-09T17:51:43.119Z,126.57
2017-11-09T17:54:09.341Z,121.53
2017-11-09T17:56:35.552Z,124.47
2017-11-09T17:59:01.746Z,119.50
2017-11-09T18:01:27.934Z,136.17
2017-11-09T18:03:54.877Z,124.77
2017-11-09T18:06:21.805Z,115.83
2017-11-09T18:08:48.048Z,123.83
2017-11-09T18:11:15.003Z,117.27
2017-11-09T18:13:41.965Z,114.80
2017-11-09T18:16:08.886Z,122.00
2017-11-09T18:18:35.108Z,129.43
2017-11-09T18:21:01.354Z,128.67
2017-11-09T18:23:27.557Z,112.17
2017-11-09T18:25:53.750Z,135.03
2017-11-09T18:28:20.722Z,127.50
2017-11-09T18:30:46.965Z,126.20
2017-11-09T18:33:13.161Z,123.93
2017-11-09T18:35:39.374Z,134.13
2017-11-09T18:38:05.582Z,127.90
2017-11-09T18:40:31.763Z,124.73
2017-11-09T18:42:59.501Z,130.40
2017-11-09T18:45:25.694Z,136.73
2017-11-09T18:47:51.889Z,129.53
2017-11-09T18:50:18.857Z,133.17
2017-11-09T18:52:45.806Z,133.67
2017-11-09T18:55:12.741Z,137.53
2017-11-09T18:57:38.961Z,147.60
2017-11-09T19:00:05.146Z,140.30
2017-11-09T19:02:31.330Z,134.63
2017-11-09T19:04:57.541Z,124.30
2017-11-09T19:07:23.730Z,120.60
2017-11-09T19:09:49.906Z,126.07
2017-11-09T19:12:16.158Z,126.47
2017-11-09T19:14:42.332Z,115.00
2017-11-09T19:17:08.509Z,119.30
2017-11-09T19:19:34.736Z,117.80
2017-11-09T19:22:00.922Z,122.27
2017-11-09T19:24:27.093Z,128.33
2017-11-09T19:26:54.187Z,115.23
2017-11-09T19:29:20.396Z,114.37
2017-11-09T19:31:46.913Z,118.23
2017-11-09T19:34:13.207Z,135.73
2017-11-09T19:36:39.389Z,119.33
2017-11-09T19:39:05.584Z,125.83
2017-11-09T19:41:31.798Z,130.60
2017-11-09T19:43:57.987Z,129.17
2017-11-09T19:46:24.164Z,134.20
2017-11-09T19:48:50.382Z,133.33
2017-11-09T19:51:16.559Z,127.80
2017-11-09T19:53:43.469Z,131.73
2017-11-09T19:56:09.666Z,140.33
2017-11-09T19:58:35.852Z,157.80
2017-11-09T20:01:02.035Z,124.47
2017-11-09T20:03:29.122Z,139.30
2017-11-09T20:05:55.296Z,149.10
2017-11-09T20:08:22.219Z,144.37
2017-11-09T20:10:48.442Z,146.27
2017-11-09T20:13:14.617Z,143.20
2017-11-09T20:15:41.545Z,135.67
2017-11-09T20:18:07.746Z,141.00
2017-11-09T20:20:33.917Z,144.50
2017-11-09T20:23:01.605Z,137.70
2017-11-09T20:25:28.567Z,129.93
2017-11-09T20:27:55.489Z,133.83
2017-11-09T20:30:22.443Z,150.47
2017-11-09T20:32:48.715Z,123.93
2017-11-09T20:35:15.127Z,150.93
2017-11-09T20:37:41.448Z,143.77
2017-11-09T20:40:07.709Z,129.57
2017-11-09T20:42:34.626Z,127.93
2017-11-09T20:45:00.814Z,132.67
2017-11-09T20:47:27.906Z,138.13
2017-11-09T20:49:55.069Z,131.57
2017-11-09T20:52:22.008Z,135.43
2017-11-09T20:54:48.233Z,132.23
2017-11-09T20:57:14.413Z,134.03
2017-11-09T20:59:40.592Z,113.77
2017-11-09T21:02:06.811Z,129.77
2017-11-09T21:04:32.994Z,133.00
2017-11-09T21:06:59.170Z,134.67
2017-11-09T21:09:26.110Z,126.33
2017-11-09T21:11:53.026Z,136.53
2017-11-09T21:14:19.190Z,138.13
2017-11-09T21:16:46.963Z,133.70
2017-11-09T21:19:13.906Z,133.83
2017-11-09T21:21:40.825Z,137.93
2017-11-09T21:24:07.055Z,145.37
2017-11-09T21:26:33.238Z,129.67
2017-11-09T21:29:00.150Z,136.07
2017-11-09T21:31:27.204Z,126.43
2017-11-09T21:33:53.610Z,130.40
2017-11-09T21:36:19.789Z,128.50
2017-11-09T21:38:46.767Z,113.40
2017-11-09T21:41:12.935Z,132.20
2017-11-09T21:43:39.118Z,119.40
2017-11-09T21:46:05.354Z,135.17
2017-11-09T21:48:32.270Z,122.70
2017-11-09T21:50:58.479Z,115.20
2017-11-09T21:53:24.659Z,128.57
2017-11-09T21:55:51.574Z,112.60
2017-11-09T21:58:17.745Z,118.80
2017-11-09T22:00:44.702Z,99.93
2017-11-09T22:03:11.645Z,114.77
2017-11-09T22:05:37.821Z,117.37
2017-11-09T22:08:04.842Z,154.87
2017-11-09T22:10:31.750Z,108.03
2017-11-09T22:12:57.943Z,102.53
2017-11-09T22:15:24.139Z,98.13
2017-11-09T22:17:51.790Z,106.43
2017-11-09T22:20:17.974Z,124.17
2017-11-09T22:22:44.154Z,118.83
2017-11-09T22:25:10.346Z,118.93
2017-11-09T22:27:37.249Z,113.90
2017-11-09T22:30:04.285Z,100.30
2017-11-09T22:32:30.468Z,105.70
2017-11-09T22:34:57.470Z,95.40
2017-11-09T22:37:24.623Z,91.20
2017-11-09T22:39:50.803Z,103.77
2017-11-09T22:42:17.729Z,98.83
2017-11-09T22:44:44.722Z,90.80
2017-11-09T22:47:11.622Z,104.40
2017-11-09T22:49:37.798Z,110.27
2017-11-09T22:52:05.606Z,84.13
2017-11-09T22:54:31.775Z,87.60
2017-11-09T22:56:58.711Z,77.90
2017-11-09T22:59:24.902Z,75.73
2017-11-09T23:01:51.098Z,71.13
2017-11-09T23:04:17.270Z,73.30
2017-11-09T23:06:44.365Z,70.67
2017-11-09T23:09:11.311Z,76.20
2017-11-09T23:11:37.508Z,69.20
2017-11-09T23:14:03.722Z,68.93
2017-11-09T23:16:29.938Z,70.17
2017-11-09T23:18:56.101Z,71.00
2017-11-09T23:21:22.324Z,73.30
2017-11-09T23:23:49.251Z,78.90
2017-11-09T23:26:15.438Z,73.17
2017-11-09T23:28:42.505Z,60.77
2017-11-09T23:31:08.682Z,67.17
2017-11-09T23:33:35.590Z,67.97
2017-11-09T23:36:02.735Z,72.00
2017-11-09T23:38:28.970Z,57.50
2017-11-09T23:40:55.155Z,75.17
2017-11-09T23:43:22.988Z,73.20
2017-11-09T23:45:49.151Z,69.13
2017-11-09T23:48:16.075Z,72.43
2017-11-09T23:50:43.122Z,68.90
2017-11-09T23:53:09.317Z,64.10
2017-11-09T23:55:35.496Z,64.57
2017-11-09T23:58:01.683Z,62.43
